Saltillo, Nebraska
Current Conditions -  °F | °C
As of 9:54 PM on Sunday 21 Dec 2014 (Local Time) from KLNK Reporting Station
Overcast Overcast  
Wind Chill: 36°   Ceiling: 700
Heat Index: 43°   Visibility: 10mi
Dew Point: 41°   Wind: 15mph
Humidity: 93%   Direction: 180°S
Pressure: 29.64"   Gusts: NA
Location:  40.6621°N, 96.6551°W
Report Text: KLNK 220354Z 18013KT 10SM OVC007 06/05 A2964 RMK AO2 SLP042 T00610050
Loading
Personal Weather Stations






























Interactive Weather Map New forecast layout! Learn more

10-Day Weather Forecast

Advertisements
Track Severe Weather on mobile